Time;durP1;ratioP1;P1;durP2;ratioP2;P2;SDS_P1;SDS_P2;PMS_P1;PMS_P2;Temp;Humidity;BMP_temperature;BMP_pressure;BME280_temperature;BME280_humidity;BME280_pressure;Samples;Min_cycle;Max_cycle;Signal;HPM_P1;HPM_P2
2023/05/17 00:01:55;;;;;;;8.80;1.65;;;6.80;99.90;;;5.38;100.00;98235.81;4990063;28;21669;-74
2023/05/17 00:04:22;;;;;;;7.85;2.05;;;6.80;99.90;;;5.32;100.00;98235.91;4987884;28;20058;-74
2023/05/17 00:06:49;;;;;;;8.32;2.58;;;6.80;99.90;;;5.12;100.00;98244.66;4990539;28;20049;-73
2023/05/17 00:09:16;;;;;;;6.75;2.13;;;6.70;99.90;;;5.26;100.00;98244.53;5001150;28;20054;-74
2023/05/17 00:11:44;;;;;;;6.90;2.22;;;6.70;99.90;;;4.96;100.00;98254.25;4988044;28;20568;-74
2023/05/17 00:14:11;;;;;;;7.35;1.90;;;6.70;99.90;;;5.00;100.00;98263.66;5009890;28;20049;-73
2023/05/17 00:16:38;;;;;;;6.95;1.90;;;6.60;99.90;;;5.05;100.00;98253.31;4986742;28;20053;-74
2023/05/17 00:19:08;;;;;;;7.60;2.20;;;6.60;99.90;;;5.13;100.00;98256.69;4986940;28;20042;-73
2023/05/17 00:21:35;;;;;;;8.73;1.77;;;6.60;99.90;;;5.21;100.00;98252.28;5004383;28;20060;-73
2023/05/17 00:24:02;;;;;;;3.85;1.70;;;6.50;99.90;;;5.18;100.00;98257.50;5004234;28;20152;-73
2023/05/17 00:26:30;;;;;;;7.32;1.55;;;6.60;99.90;;;5.26;100.00;98256.56;4967847;28;20049;-74
2023/05/17 00:28:57;;;;;;;5.57;1.85;;;6.50;99.90;;;5.21;100.00;98261.75;4984085;28;20062;-73
2023/05/17 00:31:24;;;;;;;7.07;1.83;;;6.60;99.90;;;5.20;100.00;98255.75;5003256;28;20446;-74
2023/05/17 00:33:51;;;;;;;7.13;1.70;;;6.60;99.90;;;5.18;100.00;98261.78;4990463;28;20080;-73
2023/05/17 00:36:18;;;;;;;10.15;2.65;;;6.60;99.90;;;5.18;100.00;98266.94;5009678;28;20050;-73
2023/05/17 00:38:46;;;;;;;7.18;2.05;;;6.50;99.90;;;5.15;100.00;98266.94;5002542;28;20045;-74
2023/05/17 00:41:13;;;;;;;11.13;2.22;;;6.50;99.90;;;4.97;100.00;98276.56;5000141;28;20054;-74
2023/05/17 00:43:40;;;;;;;9.70;2.45;;;6.50;99.90;;;4.97;100.00;98281.72;5005932;28;20054;-74
2023/05/17 00:46:07;;;;;;;7.18;2.30;;;6.40;99.90;;;4.91;100.00;98284.31;4986262;28;20514;-73
2023/05/17 00:48:35;;;;;;;6.57;2.13;;;6.40;99.90;;;4.93;100.00;98282.59;4984830;28;20050;-73
2023/05/17 00:51:02;;;;;;;6.03;2.30;;;6.40;99.90;;;4.88;100.00;98281.78;5002229;28;20041;-73
2023/05/17 00:53:29;;;;;;;7.05;2.03;;;6.30;99.90;;;5.03;100.00;98283.34;5004861;28;20069;-74
2023/05/17 00:55:56;;;;;;;6.28;2.03;;;6.30;99.90;;;4.93;100.00;98282.59;4986777;28;20050;-73
2023/05/17 00:58:24;;;;;;;6.63;2.05;;;6.40;99.90;;;4.83;100.00;98283.53;5007438;28;20696;-74
2023/05/17 01:00:51;;;;;;;5.90;2.50;;;6.30;99.90;;;5.04;100.00;98287.66;4990108;28;20065;-74
2023/05/17 01:03:18;;;;;;;6.43;1.92;;;6.30;99.90;;;4.94;100.00;98289.44;4988202;28;20891;-74
2023/05/17 01:05:46;;;;;;;5.00;1.63;;;6.30;99.90;;;4.99;100.00;98292.81;4986515;28;20513;-74
2023/05/17 01:08:13;;;;;;;6.63;2.53;;;6.30;99.90;;;5.04;100.00;98287.66;4991416;28;20104;-73
2023/05/17 01:11:15;;;;;;;6.63;2.30;;;6.40;99.90;;;5.15;100.00;98288.38;5006238;28;20052;-73
2023/05/17 01:13:54;;;;;;;6.45;2.20;;;6.40;99.90;;;5.08;100.00;98289.31;4983337;28;20134;-74
2023/05/17 01:16:37;;;;;;;8.27;2.92;;;6.40;99.90;;;5.17;100.00;98289.22;4987313;28;20151;-73
2023/05/17 01:19:33;;;;;;;6.65;2.45;;;6.40;99.90;;;5.30;100.00;98291.69;4988617;28;20087;-73
2023/05/17 01:22:52;;;;;;;5.25;1.63;;;6.50;99.90;;;5.22;100.00;98284.91;5005923;28;20056;-73
2023/05/17 01:25:42;;;;;;;6.85;1.90;;;6.50;99.90;;;5.17;100.00;98288.38;4962675;28;20045;-73
2023/05/17 01:28:11;;;;;;;7.25;2.22;;;6.50;99.90;;;5.39;100.00;98286.44;4991934;28;20123;-73
2023/05/17 01:30:40;;;;;;;5.90;2.15;;;6.50;99.90;;;5.41;100.00;98289.88;4979487;28;20516;-73
2023/05/17 01:33:08;;;;;;;8.93;2.45;;;6.50;99.90;;;5.12;100.00;98288.41;4998683;28;20069;-73
2023/05/17 01:35:36;;;;;;;6.68;1.98;;;6.60;99.90;;;5.21;100.00;98288.34;4988344;28;20052;-73
2023/05/17 01:38:03;;;;;;;5.38;2.30;;;6.60;99.90;;;5.17;100.00;98288.38;5003084;28;20053;-73
2023/05/17 01:40:36;;;;;;;6.97;2.17;;;6.50;99.90;;;5.14;100.00;98296.97;5006167;28;20486;-73
2023/05/17 01:43:22;;;;;;;7.70;2.40;;;6.60;99.90;;;5.19;100.00;98302.09;4993217;28;20068;-73
2023/05/17 01:46:20;;;;;;;6.40;2.20;;;6.50;99.90;;;5.12;100.00;98303.00;5003057;28;20887;-73
2023/05/17 01:49:23;;;;;;;10.82;2.40;;;6.50;99.90;;;4.98;100.00;98316.00;5003213;28;20052;-74
2023/05/17 01:52:15;;;;;;;7.05;2.22;;;6.50;99.90;;;5.02;100.00;98317.69;4983765;28;20127;-73
2023/05/17 01:54:50;;;;;;;7.15;2.42;;;6.40;99.90;;;4.91;100.00;98312.63;4996609;28;20481;-73
2023/05/17 01:57:23;;;;;;;5.97;2.08;;;6.30;99.90;;;4.87;100.00;98315.22;4985839;28;20052;-73
2023/05/17 01:59:51;;;;;;;5.63;2.10;;;6.30;99.90;;;4.74;100.00;98320.44;4983900;28;20128;-73
2023/05/17 02:02:21;;;;;;;5.68;2.15;;;6.30;99.90;;;4.67;100.00;98323.09;5010307;28;20101;-73
2023/05/17 02:04:50;;;;;;;6.32;2.38;;;6.20;99.90;;;4.81;100.00;98334.13;4988432;28;20099;-73
2023/05/17 02:07:17;;;;;;;8.07;3.22;;;6.20;99.90;;;5.09;100.00;98321.91;5003324;28;20053;-73
2023/05/17 02:09:44;;;;;;;9.93;2.67;;;6.20;99.90;;;4.84;100.00;98323.84;5008251;28;20073;-73
2023/05/17 02:12:12;;;;;;;6.70;2.50;;;6.30;99.90;;;4.60;100.00;98322.28;5007224;28;20046;-73
2023/05/17 02:14:39;;;;;;;9.18;2.80;;;6.20;99.90;;;4.62;100.00;98323.13;4999879;28;20548;-73
2023/05/17 02:17:06;;;;;;;9.88;2.83;;;6.10;99.90;;;4.67;100.00;98330.81;4978702;28;20054;-73
2023/05/17 02:19:33;;;;;;;10.20;3.50;;;6.00;99.90;;;4.72;100.00;98329.03;4985766;28;20054;-74
2023/05/17 02:22:00;;;;;;;8.23;2.72;;;6.00;99.90;;;4.88;100.00;98317.81;4990133;28;20073;-73
2023/05/17 02:24:27;;;;;;;7.88;2.70;;;6.10;99.90;;;4.75;100.00;98319.59;4998411;28;20046;-73
2023/05/17 02:26:54;;;;;;;8.13;3.10;;;6.20;99.90;;;4.91;100.00;98320.34;5012498;28;20060;-73
2023/05/17 02:29:24;;;;;;;8.40;2.95;;;6.20;99.90;;;5.17;100.00;98319.25;5008167;28;20054;-74
2023/05/17 02:31:51;;;;;;;9.07;3.30;;;6.20;99.90;;;5.27;100.00;98322.59;4987532;28;20054;-73
2023/05/17 02:34:21;;;;;;;8.45;2.78;;;6.40;99.90;;;5.26;100.00;98324.31;4990708;28;20124;-73
2023/05/17 02:36:49;;;;;;;11.48;3.03;;;6.40;99.90;;;5.02;100.00;98317.69;4999036;28;20179;-73
2023/05/17 02:39:16;;;;;;;6.60;2.42;;;6.40;99.90;;;5.06;100.00;98324.50;4988392;28;20520;-73
2023/05/17 02:41:43;;;;;;;9.25;3.13;;;6.40;99.90;;;5.09;100.00;98326.22;5004201;28;20053;-73
2023/05/17 02:44:11;;;;;;;10.85;3.00;;;6.30;99.90;;;5.07;100.00;98328.78;5003352;28;20045;-73
2023/05/17 02:46:38;;;;;;;6.93;2.30;;;6.30;99.90;;;4.85;100.00;98330.66;4983515;28;20085;-73
2023/05/17 02:49:05;;;;;;;9.15;3.00;;;6.30;99.90;;;4.99;100.00;98333.13;4981997;28;20056;-73
2023/05/17 02:51:32;;;;;;;7.30;2.97;;;6.30;99.90;;;5.00;100.00;98340.00;4985220;28;20159;-73
2023/05/17 02:53:59;;;;;;;10.70;3.03;;;6.30;99.90;;;4.88;100.00;98340.06;4995840;28;20042;-73
2023/05/17 02:56:27;;;;;;;8.00;2.97;;;6.30;99.90;;;4.71;100.00;98341.06;4975135;28;20044;-73
2023/05/17 02:58:56;;;;;;;8.88;2.35;;;6.20;99.90;;;4.58;100.00;98335.16;5003043;28;20609;-73
2023/05/17 03:01:23;;;;;;;10.65;2.70;;;6.10;99.90;;;4.59;100.00;98346.28;4985129;28;20053;-73
2023/05/17 03:03:50;;;;;;;8.38;2.88;;;6.00;99.90;;;4.49;100.00;98354.91;5001266;28;20058;-74
2023/05/17 03:06:18;;;;;;;7.60;2.53;;;6.00;99.90;;;4.39;100.00;98361.81;5007843;28;20046;-73
2023/05/17 03:08:45;;;;;;;9.50;2.78;;;5.90;99.90;;;4.41;100.00;98357.53;4993372;28;20054;-73
2023/05/17 03:11:13;;;;;;;10.75;3.60;;;5.90;99.90;;;4.42;100.00;98372.09;4975815;28;20041;-73
2023/05/17 03:13:40;;;;;;;8.25;3.05;;;5.80;99.90;;;4.37;100.00;98374.69;4986224;28;20671;-73
2023/05/17 03:16:08;;;;;;;5.70;2.50;;;5.80;99.90;;;4.32;100.00;98381.56;5003679;28;20532;-73
2023/05/17 03:18:35;;;;;;;10.23;3.22;;;5.90;99.90;;;4.25;100.00;98384.19;5002242;28;20737;-73
2023/05/17 03:21:03;;;;;;;6.97;2.75;;;5.80;99.90;;;4.29;100.00;98386.72;5001592;28;20850;-73
2023/05/17 03:23:30;;;;;;;8.05;3.03;;;5.80;99.90;;;4.18;100.00;98388.50;5001744;28;20154;-73
2023/05/17 03:25:57;;;;;;;7.45;2.92;;;5.80;99.90;;;4.27;100.00;98388.44;5002882;28;20112;-73
2023/05/17 03:28:24;;;;;;;9.40;2.83;;;5.70;99.90;;;4.25;100.00;98389.31;5004778;28;20617;-73
2023/05/17 03:30:52;;;;;;;9.50;2.78;;;5.70;99.90;;;4.13;100.00;98392.78;5005446;28;20193;-73
2023/05/17 03:33:19;;;;;;;8.73;2.40;;;5.60;99.90;;;4.10;100.00;98388.50;4988942;28;20239;-73
2023/05/17 03:35:46;;;;;;;7.70;2.50;;;5.70;99.90;;;4.03;100.00;98403.94;5005583;28;20131;-74
2023/05/17 03:38:13;;;;;;;5.28;2.25;;;5.60;99.90;;;4.04;100.00;98405.66;5004250;28;20046;-73
2023/05/17 03:40:40;;;;;;;6.78;2.60;;;5.50;99.90;;;4.03;100.00;98406.53;4990583;28;20042;-73
2023/05/17 03:43:07;;;;;;;7.13;2.80;;;5.50;99.90;;;3.98;100.00;98409.09;5006684;28;20133;-73
2023/05/17 03:45:34;;;;;;;11.65;3.00;;;5.40;99.90;;;3.99;100.00;98408.22;5013134;28;20047;-73
2023/05/17 03:48:02;;;;;;;9.85;3.08;;;5.40;99.90;;;4.12;100.00;98412.47;4986073;28;20077;-73
2023/05/17 03:50:31;;;;;;;6.70;2.88;;;5.40;99.90;;;4.05;100.00;98415.94;4991332;28;20132;-73
2023/05/17 03:52:58;;;;;;;7.05;2.58;;;5.40;99.90;;;3.91;100.00;98409.97;5011415;28;20208;-73
2023/05/17 03:55:25;;;;;;;7.28;3.00;;;5.40;99.90;;;3.91;100.00;98410.84;5007368;28;20487;-73
2023/05/17 03:57:52;;;;;;;6.72;2.55;;;5.30;99.90;;;3.96;100.00;98416.81;5004488;28;20074;-73
2023/05/17 04:00:20;;;;;;;7.35;2.83;;;5.30;99.90;;;4.07;100.00;98418.50;4969196;28;20532;-73
2023/05/17 04:02:49;;;;;;;10.13;2.92;;;5.30;99.90;;;4.09;100.00;98420.19;4989132;28;20144;-73
2023/05/17 04:05:18;;;;;;;9.20;3.17;;;5.40;99.90;;;4.09;100.00;98425.34;5002516;28;20054;-73
2023/05/17 04:07:45;;;;;;;7.28;2.78;;;5.40;99.90;;;4.08;100.00;98418.50;4997312;28;20057;-73
2023/05/17 04:10:13;;;;;;;5.82;2.50;;;5.40;99.90;;;4.02;100.00;98426.22;4993090;28;20085;-73
2023/05/17 04:12:40;;;;;;;8.27;3.10;;;5.40;99.90;;;4.09;100.00;98434.78;4973695;28;20058;-73
2023/05/17 04:15:07;;;;;;;6.30;2.35;;;5.40;99.90;;;4.07;100.00;98428.78;4971011;28;20054;-73
2023/05/17 04:17:35;;;;;;;7.03;2.47;;;5.40;99.90;;;4.13;100.00;98432.19;4985004;28;20137;-73
2023/05/17 04:20:05;;;;;;;9.10;3.60;;;5.40;99.90;;;4.23;100.00;98440.72;5001258;28;20416;-73
2023/05/17 04:22:32;;;;;;;5.40;2.30;;;5.50;99.90;;;4.38;100.00;98439.81;4991503;28;21595;-73
2023/05/17 04:25:00;;;;;;;13.23;2.67;;;5.60;99.90;;;4.57;100.00;98438.84;5003299;28;20058;-73
2023/05/17 04:27:27;;;;;;;13.25;2.95;;;5.60;99.90;;;4.58;100.00;98435.44;5003600;28;20052;-74
2023/05/17 04:29:55;;;;;;;11.48;2.75;;;5.70;99.90;;;4.43;100.00;98443.22;5005565;28;20064;-73
2023/05/17 04:32:22;;;;;;;7.57;2.38;;;5.80;99.90;;;4.70;100.00;98444.81;5003128;28;20072;-73
2023/05/17 04:34:50;;;;;;;12.82;3.35;;;5.80;99.90;;;4.69;100.00;98445.66;4985797;28;20159;-73
2023/05/17 04:37:18;;;;;;;10.45;2.65;;;5.80;99.90;;;4.69;100.00;98442.22;4986709;28;20182;-73
2023/05/17 04:39:47;;;;;;;9.40;2.85;;;5.90;99.90;;;4.69;100.00;98452.53;5003277;28;21079;-73
2023/05/17 04:42:17;;;;;;;7.38;2.53;;;5.90;99.90;;;4.75;100.00;98453.34;4990560;28;20063;-73
2023/05/17 04:44:44;;;;;;;7.03;2.20;;;6.00;99.90;;;4.73;100.00;98451.66;5009424;28;20513;-73
2023/05/17 04:47:14;;;;;;;7.03;2.72;;;6.00;99.90;;;4.72;100.00;98452.50;5004393;28;20057;-73
2023/05/17 04:49:42;;;;;;;7.60;2.47;;;6.00;99.90;;;4.70;100.00;98457.66;5006188;28;20056;-73
2023/05/17 04:52:09;;;;;;;8.77;2.33;;;6.00;99.90;;;4.73;100.00;98465.34;5003189;28;20125;-73
2023/05/17 04:54:36;;;;;;;7.82;2.60;;;6.10;99.90;;;5.00;100.00;98471.22;4986147;28;20138;-73
2023/05/17 04:57:03;;;;;;;8.48;2.70;;;6.10;99.90;;;5.19;100.00;98472.78;5001592;28;20081;-73
2023/05/17 04:59:30;;;;;;;9.05;2.42;;;6.20;99.90;;;5.29;100.00;98477.88;5009491;28;20053;-73
2023/05/17 05:01:57;;;;;;;10.43;2.78;;;6.30;99.90;;;5.36;100.00;98466.66;4991900;28;20137;-73
2023/05/17 05:04:24;;;;;;;8.05;2.17;;;6.40;99.90;;;5.35;100.00;98465.81;4992825;28;20149;-73
2023/05/17 05:06:51;;;;;;;10.68;2.92;;;6.40;99.90;;;5.56;100.00;98469.94;4981879;28;20054;-73
2023/05/17 05:09:19;;;;;;;7.15;2.22;;;6.50;99.90;;;5.65;100.00;98466.44;4978086;28;20639;-73
2023/05/17 05:11:46;;;;;;;5.90;2.40;;;6.60;99.90;;;5.84;100.00;98469.72;4978053;28;20125;-73
2023/05/17 05:14:13;;;;;;;13.80;3.28;;;6.80;99.90;;;6.00;100.00;98473.03;5003500;28;20829;-73
2023/05/17 05:16:40;;;;;;;10.65;2.78;;;6.90;99.90;;;6.10;100.00;98474.66;5000109;28;20046;-73
2023/05/17 05:19:10;;;;;;;8.82;3.03;;;7.00;99.90;;;6.27;100.00;98466.72;5007333;28;20129;-73
2023/05/17 05:21:37;;;;;;;11.07;3.17;;;7.10;99.90;;;6.30;100.00;98458.97;5005216;28;20491;-73
2023/05/17 05:24:05;;;;;;;8.30;2.95;;;7.20;99.90;;;6.55;100.00;98466.44;4992350;28;20190;-73
2023/05/17 05:26:32;;;;;;;9.10;3.72;;;7.30;99.90;;;6.67;100.00;98459.38;5006743;28;20522;-73
2023/05/17 05:28:59;;;;;;;9.10;3.22;;;7.50;99.90;;;6.76;100.00;98457.56;5005652;28;20137;-73
2023/05/17 05:31:27;;;;;;;9.50;3.25;;;7.50;99.90;;;6.93;100.00;98457.31;4971425;28;20050;-73
2023/05/17 05:33:54;;;;;;;9.95;3.00;;;7.70;99.90;;;7.00;100.00;98459.81;5002416;28;20062;-73
2023/05/17 05:36:21;;;;;;;7.97;2.67;;;7.80;99.90;;;7.20;100.00;98446.59;4988572;28;20046;-73
2023/05/17 05:38:52;;;;;;;10.88;2.75;;;7.80;99.90;;;7.11;100.00;98445.00;5008447;28;20115;-72
2023/05/17 05:41:19;;;;;;;7.07;2.95;;;7.90;99.90;;;7.29;100.00;98441.28;4991308;28;20042;-74
2023/05/17 05:43:46;;;;;;;8.48;3.08;;;8.00;99.90;;;7.26;100.00;98443.91;4991083;28;20068;-73
2023/05/17 05:46:13;;;;;;;6.55;2.90;;;8.10;99.90;;;7.43;100.00;98441.06;5009960;28;20408;-73
2023/05/17 05:48:41;;;;;;;10.20;3.13;;;8.10;99.90;;;7.38;100.00;98442.88;4991957;28;20104;-73
2023/05/17 05:51:09;;;;;;;8.52;3.55;;;8.30;99.90;;;7.65;100.00;98446.75;5008605;28;20150;-73
2023/05/17 05:53:38;;;;;;;14.10;4.05;;;8.40;99.90;;;7.64;100.00;98441.59;5008115;28;20080;-73
2023/05/17 05:56:05;;;;;;;11.25;3.55;;;8.40;99.90;;;7.63;100.00;98437.31;5003846;28;20672;-73
2023/05/17 05:58:32;;;;;;;9.48;3.15;;;8.50;99.90;;;7.69;100.00;98434.63;4997439;28;20437;-73
2023/05/17 06:00:59;;;;;;;11.73;3.13;;;8.50;99.90;;;7.63;100.00;98435.56;5011030;28;20050;-73
2023/05/17 06:03:31;;;;;;;7.90;2.97;;;8.60;99.90;;;7.59;100.00;98435.66;4980471;28;20049;-73
2023/05/17 06:05:58;;;;;;;12.55;3.53;;;8.70;99.90;;;7.90;100.00;98434.22;5011142;28;20057;-74
2023/05/17 06:08:25;;;;;;;8.15;3.38;;;8.70;99.90;;;7.83;100.00;98442.13;5007177;28;20068;-73
2023/05/17 06:10:52;;;;;;;7.50;2.85;;;8.80;99.90;;;7.89;100.00;98445.47;4967937;28;20424;-73
2023/05/17 06:13:19;;;;;;;10.52;3.30;;;8.80;99.90;;;8.04;100.00;98439.16;4981512;28;20135;-73
2023/05/17 06:15:47;;;;;;;9.55;3.38;;;8.80;99.90;;;7.95;100.00;98434.16;4990231;28;20798;-73
2023/05/17 06:18:14;;;;;;;10.77;3.58;;;8.80;99.90;;;8.30;100.00;98441.25;4988580;28;20382;-74
2023/05/17 06:20:41;;;;;;;10.13;3.30;;;8.90;99.90;;;8.51;100.00;98440.00;4991734;28;20045;-73
2023/05/17 06:23:08;;;;;;;12.35;4.05;;;9.10;99.90;;;8.54;100.00;98437.34;4997002;28;20132;-73
2023/05/17 06:25:35;;;;;;;9.38;3.40;;;9.20;99.90;;;8.50;100.00;98440.03;5007898;28;20419;-74
2023/05/17 06:28:03;;;;;;;9.55;3.60;;;9.10;99.90;;;8.87;100.00;98439.25;5000797;28;20058;-74
2023/05/17 06:30:30;;;;;;;8.45;3.53;;;9.30;99.90;;;8.76;100.00;98434.31;4987428;28;20128;-73
2023/05/17 06:32:58;;;;;;;8.93;3.35;;;9.50;99.90;;;9.05;100.00;98420.69;5009927;28;20164;-73
2023/05/17 06:35:25;;;;;;;10.60;3.50;;;9.80;99.90;;;8.97;100.00;98431.25;4991633;28;20593;-73
2023/05/17 06:37:52;;;;;;;10.15;4.10;;;9.90;99.90;;;9.10;100.00;98429.25;5012265;28;20046;-73
2023/05/17 06:40:19;;;;;;;12.55;3.88;;;9.90;99.90;;;9.30;100.00;98428.75;4995319;28;20077;-73
2023/05/17 06:42:47;;;;;;;13.15;3.70;;;10.00;99.90;;;9.47;100.00;98422.34;4993333;28;20045;-73
2023/05/17 06:45:14;;;;;;;13.00;3.80;;;10.20;99.90;;;9.28;100.00;98416.72;5012054;28;20145;-74
2023/05/17 06:47:41;;;;;;;12.93;4.25;;;10.20;99.90;;;9.16;100.00;98423.91;4988658;28;20485;-74
2023/05/17 06:50:09;;;;;;;14.55;3.70;;;10.10;99.90;;;9.43;100.00;98421.53;4987095;28;20057;-72
2023/05/17 06:52:36;;;;;;;14.77;4.07;;;10.10;99.90;;;9.34;100.00;98417.44;5003873;28;20056;-79
2023/05/17 06:55:04;;;;;;;7.95;3.88;;;10.30;99.90;;;9.28;100.00;98419.31;4995513;28;20046;-79
2023/05/17 06:57:31;;;;;;;11.48;3.72;;;10.20;99.90;;;9.58;100.00;98410.81;4990422;28;20076;-79
2023/05/17 06:59:58;;;;;;;13.70;3.97;;;10.30;99.90;;;9.23;100.00;98416.00;5000673;28;20506;-80
2023/05/17 07:02:25;;;;;;;10.50;3.42;;;10.40;99.90;;;9.62;100.00;98415.03;5007325;28;20053;-80
2023/05/17 07:04:55;;;;;;;10.65;4.07;;;10.40;99.90;;;9.74;100.00;98416.44;4966216;28;20130;-78
2023/05/17 07:07:24;;;;;;;12.20;4.28;;;10.50;99.90;;;10.09;100.00;98416.41;4991337;28;20050;-81
2023/05/17 07:09:52;;;;;;;9.75;4.43;;;10.70;99.90;;;10.40;100.00;98416.41;4979013;28;20124;-80
2023/05/17 07:12:19;;;;;;;14.98;4.32;;;11.00;99.90;;;10.20;100.00;98414.38;5000076;28;20133;-77
2023/05/17 07:14:47;;;;;;;13.48;3.65;;;11.10;99.90;;;9.69;100.00;98418.28;4993716;28;20167;-78
2023/05/17 07:17:14;;;;;;;7.65;3.17;;;10.90;99.90;;;9.85;100.00;98421.34;5008598;28;20139;-79
2023/05/17 07:19:41;;;;;;;10.45;3.95;;;10.80;99.90;;;9.73;100.00;98429.44;5006392;28;20054;-78
2023/05/17 07:22:08;;;;;;;9.50;3.22;;;10.80;99.90;;;9.89;100.00;98427.31;4990605;28;20046;-79
2023/05/17 07:24:36;;;;;;;12.02;4.43;;;10.70;99.90;;;9.90;100.00;98424.69;4974152;28;20053;-80
2023/05/17 07:27:04;;;;;;;10.25;3.13;;;10.80;99.90;;;10.20;100.00;98423.00;5007928;28;20054;-78
2023/05/17 07:29:32;;;;;;;10.15;3.58;;;11.00;99.90;;;10.42;100.00;98425.88;5008165;28;20149;-78
2023/05/17 07:31:59;;;;;;;12.07;4.35;;;11.10;99.90;;;10.35;100.00;98428.69;4972196;28;20057;-78
2023/05/17 07:34:26;;;;;;;12.00;3.72;;;11.30;99.90;;;10.79;100.00;98401.44;5004448;28;20118;-78
2023/05/17 07:36:53;;;;;;;9.05;3.35;;;11.40;99.90;;;10.92;100.00;98403.66;4974549;28;20121;-83
2023/05/17 07:39:20;;;;;;;10.45;3.20;;;11.80;99.90;;;11.24;100.00;98410.44;4999988;28;20522;-79
2023/05/17 07:41:47;;;;;;;7.80;3.22;;;11.90;99.90;;;10.89;100.00;98402.84;4983612;28;20053;-80
2023/05/17 07:44:15;;;;;;;8.63;3.15;;;11.80;99.90;;;11.01;100.00;98404.19;4982390;28;20617;-79
2023/05/17 07:46:43;;;;;;;8.93;3.30;;;12.00;99.90;;;11.18;100.00;98401.09;5003317;28;20419;-78
2023/05/17 07:49:10;;;;;;;12.77;3.25;;;12.10;99.90;;;10.81;100.00;98402.25;4980096;28;20054;-82
2023/05/17 07:51:37;;;;;;;13.43;3.80;;;12.10;99.90;;;10.88;100.00;98402.91;4982321;28;20054;-80
2023/05/17 07:54:04;;;;;;;9.50;3.47;;;11.90;99.90;;;10.67;100.00;98410.44;4981312;28;20054;-79
2023/05/17 07:56:32;;;;;;;10.57;3.45;;;11.70;99.90;;;10.65;100.00;98411.38;4973462;28;20471;-83
2023/05/17 07:58:59;;;;;;;12.48;3.28;;;11.60;99.90;;;10.31;100.00;98422.75;4969237;28;20053;-79
2023/05/17 08:01:27;;;;;;;10.10;3.50;;;11.30;99.90;;;10.08;100.00;98417.28;4985999;28;20104;-79
2023/05/17 08:03:54;;;;;;;12.88;3.60;;;11.20;99.90;;;9.92;100.00;98422.91;4998739;28;20050;-76
2023/05/17 08:06:21;;;;;;;11.82;3.67;;;11.00;99.90;;;9.84;100.00;98436.06;4986594;28;20161;-78
2023/05/17 08:08:50;;;;;;;9.90;3.65;;;10.80;99.90;;;9.74;100.00;98426.81;4990462;28;20081;-78
2023/05/17 08:11:17;;;;;;;11.02;4.05;;;10.80;99.90;;;9.68;100.00;98420.94;4972597;28;20518;-78
2023/05/17 08:13:44;;;;;;;9.63;3.70;;;10.80;99.90;;;9.82;100.00;98434.38;4983131;28;20123;-77
2023/05/17 08:16:11;;;;;;;10.88;3.63;;;10.80;99.90;;;10.19;100.00;98436.84;5013277;28;20050;-78
2023/05/17 08:18:41;;;;;;;15.05;4.50;;;10.90;99.90;;;10.48;100.00;98422.25;4998557;28;20077;-80
2023/05/17 08:21:10;;;;;;;8.52;3.20;;;11.00;99.90;;;10.96;100.00;98424.28;4980801;28;20054;-79
2023/05/17 08:23:38;;;;;;;14.70;3.92;;;11.30;99.90;;;10.98;100.00;98427.69;4986862;28;20046;-79
2023/05/17 08:26:05;;;;;;;10.40;3.42;;;11.60;99.90;;;10.99;100.00;98429.41;4990704;28;20376;-79
2023/05/17 08:28:33;;;;;;;11.05;3.75;;;11.80;99.90;;;11.18;100.00;98427.09;4988924;28;20126;-79
2023/05/17 08:31:00;;;;;;;11.55;3.75;;;11.80;99.90;;;11.34;100.00;98426.59;5000204;28;20057;-79
2023/05/17 08:33:27;;;;;;;17.58;3.35;;;11.90;99.90;;;11.85;100.00;98423.16;5001334;28;20049;-78
2023/05/17 08:35:56;;;;;;;13.43;4.13;;;12.20;99.90;;;12.27;100.00;98426.06;5009068;28;20049;-80
2023/05/17 08:38:26;;;;;;;9.70;3.35;;;12.50;99.90;;;12.09;100.00;98416.31;5004671;28;20562;-79
2023/05/17 08:40:54;;;;;;;13.57;3.30;;;12.80;99.90;;;12.21;100.00;98417.63;5019559;28;20049;-79
2023/05/17 08:43:23;;;;;;;11.82;3.17;;;12.90;99.90;;;12.61;100.00;98401.34;5004389;28;20053;-79
2023/05/17 08:45:56;;;;;;;10.90;3.40;;;13.30;99.90;;;12.56;100.00;98404.13;4980682;28;20057;-79
2023/05/17 08:48:29;;;;;;;5.78;2.53;;;13.30;99.90;;;11.95;100.00;98403.78;5011449;28;20133;-78
2023/05/17 08:50:58;;;;;;;8.93;2.97;;;13.40;99.90;;;11.79;100.00;98402.56;4992100;28;20140;-78
2023/05/17 08:53:26;;;;;;;10.45;2.47;;;13.10;99.90;;;12.03;100.00;98406.09;4995630;28;20430;-78
2023/05/17 08:56:00;;;;;;;10.25;2.70;;;12.90;99.90;;;11.61;100.00;98398.81;5013047;28;20118;-80
2023/05/17 08:58:31;;;;;;;6.93;2.55;;;12.80;99.90;;;11.55;100.00;98397.28;5003944;28;20426;-80
2023/05/17 09:01:18;;;;;;;8.10;2.75;;;12.60;99.90;;;11.74;100.00;98402.72;5011389;28;20062;-80
2023/05/17 09:03:49;;;;;;;7.45;2.50;;;12.70;99.90;;;13.31;100.00;98395.19;5013770;28;20049;-80
2023/05/17 09:06:21;;;;;;;11.70;2.50;;;13.60;99.90;;;12.50;100.00;98398.34;5011185;28;20077;-79
2023/05/17 09:08:51;;;;;;;6.28;2.42;;;13.90;99.90;;;11.86;100.00;98393.63;5003684;28;20053;-79
2023/05/17 09:11:26;;;;;;;6.30;2.03;;;13.30;99.90;;;11.85;100.00;98392.78;4983414;28;20050;-78
2023/05/17 09:13:58;;;;;;;5.45;1.92;;;13.00;99.90;;;11.96;100.00;98391.63;4999850;28;20062;-79
2023/05/17 09:16:35;;;;;;;6.32;1.98;;;12.80;99.90;;;11.33;100.00;98397.13;5011961;28;20064;-79
2023/05/17 09:19:07;;;;;;;13.02;2.80;;;12.60;99.90;;;10.93;100.00;98406.22;5013544;28;20096;-79
2023/05/17 09:21:37;;;;;;;8.13;2.65;;;12.20;99.90;;;10.76;100.00;98414.50;4979473;28;20520;-78
2023/05/17 09:24:05;;;;;;;13.73;2.42;;;12.00;99.90;;;10.99;100.00;98402.56;5005203;28;20494;-78
2023/05/17 09:26:44;;;;;;;8.63;2.42;;;12.00;99.90;;;11.12;100.00;98416.03;5001426;28;20072;-80
2023/05/17 09:29:15;;;;;;;8.23;2.50;;;12.00;99.90;;;11.09;100.00;98414.38;5021633;28;20057;-80
2023/05/17 09:31:43;;;;;;;7.72;2.88;;;11.90;99.90;;;11.43;100.00;98406.34;5007465;28;20257;-80
2023/05/17 09:34:10;;;;;;;6.15;2.00;;;12.10;99.90;;;11.32;100.00;98412.81;4982776;28;20430;-80
2023/05/17 09:36:42;;;;;;;9.15;2.53;;;12.40;99.90;;;11.34;100.00;98424.84;5001246;28;20056;-80
2023/05/17 09:39:11;;;;;;;6.15;2.28;;;12.30;99.90;;;11.59;100.00;98414.50;4994283;28;20055;-79
2023/05/17 09:41:48;;;;;;;9.00;2.40;;;12.40;99.90;;;13.39;100.00;98398.34;5001319;28;20050;-79
2023/05/17 09:44:15;;;;;;;9.95;2.42;;;13.30;99.90;;;13.04;100.00;98404.09;4999687;28;20047;-80
2023/05/17 09:46:47;;;;;;;10.88;2.50;;;13.80;99.90;;;12.55;100.00;98401.63;5012836;28;20057;-79
2023/05/17 09:49:16;;;;;;;6.90;1.92;;;13.70;99.90;;;11.98;100.00;98398.47;5001344;28;20046;-80
2023/05/17 09:51:46;;;;;;;6.68;2.17;;;13.60;99.90;;;12.96;100.00;98402.63;5011211;28;20057;-79
2023/05/17 09:54:14;;;;;;;6.68;2.17;;;13.70;99.90;;;13.96;100.00;98390.75;4995995;28;20046;-80
2023/05/17 09:56:41;;;;;;;6.90;2.20;;;14.70;99.90;;;14.79;100.00;98387.03;5008267;28;20125;-79
2023/05/17 09:59:15;;;;;;;6.32;2.17;;;15.20;99.90;;;15.47;100.00;98381.19;4992109;28;20050;-80
2023/05/17 10:01:44;;;;;;;7.65;1.60;;;16.00;99.90;;;14.25;100.00;98374.69;4994552;28;20045;-80
2023/05/17 10:04:12;;;;;;;7.47;1.83;;;16.00;99.90;;;14.07;100.00;98386.81;5003091;28;20057;-80
2023/05/17 10:06:43;;;;;;;9.23;2.30;;;15.20;99.90;;;13.97;100.00;98392.41;4987299;28;20573;-80
2023/05/17 10:09:21;;;;;;;7.25;1.90;;;14.80;99.90;;;13.41;100.00;98387.00;5015650;28;20058;-80
2023/05/17 10:11:52;;;;;;;6.55;1.80;;;14.60;99.90;;;12.91;100.00;98391.53;4991053;28;20073;-81
2023/05/17 10:14:31;;;;;;;7.22;2.47;;;14.20;99.90;;;12.45;100.00;98401.13;5000896;28;20045;-80
2023/05/17 10:17:00;;;;;;;9.20;2.40;;;13.80;99.90;;;11.83;100.00;98405.00;4995410;28;20147;-81
2023/05/17 10:19:28;;;;;;;6.65;2.53;;;13.40;99.90;;;12.05;100.00;98396.50;5018494;28;20412;-80
2023/05/17 10:21:57;;;;;;;7.50;2.20;;;13.20;99.90;;;11.89;100.00;98406.59;4999072;28;20505;-80
2023/05/17 10:24:46;;;;;;;8.50;2.17;;;13.00;99.90;;;11.52;100.00;98407.81;5001707;28;20485;-80
2023/05/17 10:27:15;;;;;;;9.45;3.10;;;12.60;99.90;;;11.52;100.00;98406.03;5000097;28;20049;-80
2023/05/17 10:29:44;;;;;;;7.45;2.63;;;12.50;99.90;;;11.49;100.00;98406.16;5010446;28;20120;-80